Terminal Aerodrome Forecast
Issued by NWS

Home | Current Version | Previous Version | Text Only | Print | Product List | Glossary Off
Versions: 1 2 3 4 5 6 7 8 9 10 11 12 13 14 15 16 17 18

000
FTUS43 KGRB 180500
TAFAUW
TAF
KAUW 180523Z 1806/1906 33009G14KT P6SM BKN022 OVC035
     FM180800 33009KT P6SM BKN025 BKN060
     FM181300 34009KT P6SM SCT025 BKN060
     FM181500 33009G15KT P6SM SCT025 SCT060
     FM182000 33005KT P6SM SKC=

USA.gov is the U.S. government's official web portal to all federal, state and local government web resources and services.